sensor_id;sensor_type;location;lat;lon;timestamp;temperature;humidity
45066;DHT22;30830;53.704;10.004;2024-02-28T00:00:50;3.00;99.90
45066;DHT22;30830;53.704;10.004;2024-02-28T00:03:17;3.00;99.90
45066;DHT22;30830;53.704;10.004;2024-02-28T00:05:42;3.00;99.90
45066;DHT22;30830;53.704;10.004;2024-02-28T00:08:08;3.00;99.90
45066;DHT22;30830;53.704;10.004;2024-02-28T00:10:33;3.00;99.90
45066;DHT22;30830;53.704;10.004;2024-02-28T00:12:59;2.90;99.90
45066;DHT22;30830;53.704;10.004;2024-02-28T00:15:25;2.90;99.90
45066;DHT22;30830;53.704;10.004;2024-02-28T00:17:52;2.90;99.90
45066;DHT22;30830;53.704;10.004;2024-02-28T00:20:18;2.90;99.90
45066;DHT22;30830;53.704;10.004;2024-02-28T00:22:44;2.90;99.90
45066;DHT22;30830;53.704;10.004;2024-02-28T00:25:09;2.90;99.90
45066;DHT22;30830;53.704;10.004;2024-02-28T00:27:36;2.90;99.90
45066;DHT22;30830;53.704;10.004;2024-02-28T00:30:03;2.90;99.90
45066;DHT22;30830;53.704;10.004;2024-02-28T00:32:32;2.90;99.90
45066;DHT22;30830;53.704;10.004;2024-02-28T00:34:57;2.80;99.90
45066;DHT22;30830;53.704;10.004;2024-02-28T00:37:23;2.90;99.90
45066;DHT22;30830;53.704;10.004;2024-02-28T00:39:49;2.90;99.90
45066;DHT22;30830;53.704;10.004;2024-02-28T00:42:15;2.90;99.90
45066;DHT22;30830;53.704;10.004;2024-02-28T00:44:41;2.90;99.90
45066;DHT22;30830;53.704;10.004;2024-02-28T00:47:10;2.90;99.90
45066;DHT22;30830;53.704;10.004;2024-02-28T00:49:36;2.90;99.90
45066;DHT22;30830;53.704;10.004;2024-02-28T00:52:02;2.80;99.90
45066;DHT22;30830;53.704;10.004;2024-02-28T00:54:28;2.90;99.90
45066;DHT22;30830;53.704;10.004;2024-02-28T00:56:53;2.90;99.90
45066;DHT22;30830;53.704;10.004;2024-02-28T00:59:19;2.80;99.90
45066;DHT22;30830;53.704;10.004;2024-02-28T01:01:44;2.80;99.90
45066;DHT22;30830;53.704;10.004;2024-02-28T01:04:10;2.80;99.90
45066;DHT22;30830;53.704;10.004;2024-02-28T01:06:35;2.80;99.90
45066;DHT22;30830;53.704;10.004;2024-02-28T01:09:01;2.70;99.90
45066;DHT22;30830;53.704;10.004;2024-02-28T01:11:27;2.80;99.90
45066;DHT22;30830;53.704;10.004;2024-02-28T01:13:52;2.70;99.90
45066;DHT22;30830;53.704;10.004;2024-02-28T01:16:18;2.70;99.90
45066;DHT22;30830;53.704;10.004;2024-02-28T01:18:43;2.70;99.90
45066;DHT22;30830;53.704;10.004;2024-02-28T01:21:09;2.60;99.90
45066;DHT22;30830;53.704;10.004;2024-02-28T01:23:35;2.60;99.90
45066;DHT22;30830;53.704;10.004;2024-02-28T01:26:00;2.60;99.90
45066;DHT22;30830;53.704;10.004;2024-02-28T01:28:29;2.60;99.90
45066;DHT22;30830;53.704;10.004;2024-02-28T01:30:55;2.60;99.90
45066;DHT22;30830;53.704;10.004;2024-02-28T01:33:20;2.60;99.90
45066;DHT22;30830;53.704;10.004;2024-02-28T01:35:46;2.60;99.90
45066;DHT22;30830;53.704;10.004;2024-02-28T01:38:11;2.50;99.90
45066;DHT22;30830;53.704;10.004;2024-02-28T01:40:37;2.50;99.90
45066;DHT22;30830;53.704;10.004;2024-02-28T01:43:04;2.50;99.90
45066;DHT22;30830;53.704;10.004;2024-02-28T01:45:32;2.50;99.90
45066;DHT22;30830;53.704;10.004;2024-02-28T01:47:57;2.50;99.90
45066;DHT22;30830;53.704;10.004;2024-02-28T01:50:23;2.50;99.90
45066;DHT22;30830;53.704;10.004;2024-02-28T01:52:49;2.40;99.90
45066;DHT22;30830;53.704;10.004;2024-02-28T01:55:15;2.50;99.90
45066;DHT22;30830;53.704;10.004;2024-02-28T01:57:40;2.40;99.90
45066;DHT22;30830;53.704;10.004;2024-02-28T02:00:07;2.40;99.90
45066;DHT22;30830;53.704;10.004;2024-02-28T02:02:35;2.50;99.90
45066;DHT22;30830;53.704;10.004;2024-02-28T02:05:01;2.40;99.90
45066;DHT22;30830;53.704;10.004;2024-02-28T02:07:26;2.40;99.90
45066;DHT22;30830;53.704;10.004;2024-02-28T02:09:52;2.40;99.90
45066;DHT22;30830;53.704;10.004;2024-02-28T02:12:18;2.40;99.90
45066;DHT22;30830;53.704;10.004;2024-02-28T02:14:48;2.40;99.90
45066;DHT22;30830;53.704;10.004;2024-02-28T02:17:14;2.40;99.90
45066;DHT22;30830;53.704;10.004;2024-02-28T02:19:40;2.40;99.90
45066;DHT22;30830;53.704;10.004;2024-02-28T02:22:08;2.40;99.90
45066;DHT22;30830;53.704;10.004;2024-02-28T02:24:34;2.40;99.90
45066;DHT22;30830;53.704;10.004;2024-02-28T02:27:00;2.40;99.90
45066;DHT22;30830;53.704;10.004;2024-02-28T02:29:26;2.40;99.90
45066;DHT22;30830;53.704;10.004;2024-02-28T02:31:53;2.40;99.90
45066;DHT22;30830;53.704;10.004;2024-02-28T02:34:19;2.30;99.90
45066;DHT22;30830;53.704;10.004;2024-02-28T02:36:44;2.30;99.90
45066;DHT22;30830;53.704;10.004;2024-02-28T02:39:10;2.30;99.90
45066;DHT22;30830;53.704;10.004;2024-02-28T02:41:36;2.30;99.90
45066;DHT22;30830;53.704;10.004;2024-02-28T02:44:01;2.30;99.90
45066;DHT22;30830;53.704;10.004;2024-02-28T02:46:27;2.30;99.90
45066;DHT22;30830;53.704;10.004;2024-02-28T02:48:52;2.20;99.90
45066;DHT22;30830;53.704;10.004;2024-02-28T02:51:21;2.30;99.90
45066;DHT22;30830;53.704;10.004;2024-02-28T02:53:46;2.30;99.90
45066;DHT22;30830;53.704;10.004;2024-02-28T02:56:12;2.20;99.90
45066;DHT22;30830;53.704;10.004;2024-02-28T02:58:37;2.20;99.90
45066;DHT22;30830;53.704;10.004;2024-02-28T03:01:03;2.20;99.90
45066;DHT22;30830;53.704;10.004;2024-02-28T03:03:28;2.20;99.90
45066;DHT22;30830;53.704;10.004;2024-02-28T03:05:54;2.20;99.90
45066;DHT22;30830;53.704;10.004;2024-02-28T03:08:21;2.20;99.90
45066;DHT22;30830;53.704;10.004;2024-02-28T03:10:46;2.10;99.90
45066;DHT22;30830;53.704;10.004;2024-02-28T03:13:12;2.10;99.90
45066;DHT22;30830;53.704;10.004;2024-02-28T03:15:37;2.10;99.90
45066;DHT22;30830;53.704;10.004;2024-02-28T03:18:03;2.10;99.90
45066;DHT22;30830;53.704;10.004;2024-02-28T03:20:29;2.10;99.90
45066;DHT22;30830;53.704;10.004;2024-02-28T03:22:55;2.20;99.90
45066;DHT22;30830;53.704;10.004;2024-02-28T03:25:20;2.10;99.90
45066;DHT22;30830;53.704;10.004;2024-02-28T03:27:46;2.10;99.90
45066;DHT22;30830;53.704;10.004;2024-02-28T03:30:12;2.10;99.90
45066;DHT22;30830;53.704;10.004;2024-02-28T03:32:37;2.10;99.90
45066;DHT22;30830;53.704;10.004;2024-02-28T03:35:03;2.10;99.90
45066;DHT22;30830;53.704;10.004;2024-02-28T03:37:30;2.10;99.90
45066;DHT22;30830;53.704;10.004;2024-02-28T03:39:56;2.10;99.90
45066;DHT22;30830;53.704;10.004;2024-02-28T03:42:22;2.10;99.90
45066;DHT22;30830;53.704;10.004;2024-02-28T03:44:48;2.20;99.90
45066;DHT22;30830;53.704;10.004;2024-02-28T03:47:13;2.20;99.90
45066;DHT22;30830;53.704;10.004;2024-02-28T03:49:39;2.10;99.90
45066;DHT22;30830;53.704;10.004;2024-02-28T03:52:04;2.20;99.90
45066;DHT22;30830;53.704;10.004;2024-02-28T03:54:31;2.20;99.90
45066;DHT22;30830;53.704;10.004;2024-02-28T03:56:57;2.20;99.90
45066;DHT22;30830;53.704;10.004;2024-02-28T03:59:24;2.20;99.90
45066;DHT22;30830;53.704;10.004;2024-02-28T04:01:49;2.20;99.90
45066;DHT22;30830;53.704;10.004;2024-02-28T04:04:15;2.10;99.90
45066;DHT22;30830;53.704;10.004;2024-02-28T04:06:40;2.20;99.90
45066;DHT22;30830;53.704;10.004;2024-02-28T04:09:06;2.20;99.90
45066;DHT22;30830;53.704;10.004;2024-02-28T04:11:32;2.20;99.90
45066;DHT22;30830;53.704;10.004;2024-02-28T04:13:58;2.20;99.90
45066;DHT22;30830;53.704;10.004;2024-02-28T04:16:23;2.20;99.90
45066;DHT22;30830;53.704;10.004;2024-02-28T04:18:49;2.20;99.90
45066;DHT22;30830;53.704;10.004;2024-02-28T04:21:14;2.10;99.90
45066;DHT22;30830;53.704;10.004;2024-02-28T04:23:40;2.20;99.90
45066;DHT22;30830;53.704;10.004;2024-02-28T04:26:07;2.10;99.90
45066;DHT22;30830;53.704;10.004;2024-02-28T04:28:32;2.10;99.90
45066;DHT22;30830;53.704;10.004;2024-02-28T04:30:58;2.10;99.90
45066;DHT22;30830;53.704;10.004;2024-02-28T04:33:23;2.10;99.90
45066;DHT22;30830;53.704;10.004;2024-02-28T04:35:49;2.10;99.90
45066;DHT22;30830;53.704;10.004;2024-02-28T04:38:14;2.10;99.90
45066;DHT22;30830;53.704;10.004;2024-02-28T04:40:40;2.00;99.90
45066;DHT22;30830;53.704;10.004;2024-02-28T04:43:05;2.00;99.90
45066;DHT22;30830;53.704;10.004;2024-02-28T04:45:31;2.00;99.90
45066;DHT22;30830;53.704;10.004;2024-02-28T04:47:57;2.00;99.90
45066;DHT22;30830;53.704;10.004;2024-02-28T04:50:23;2.00;99.90
45066;DHT22;30830;53.704;10.004;2024-02-28T04:52:49;2.00;99.90
45066;DHT22;30830;53.704;10.004;2024-02-28T04:55:14;2.00;99.90
45066;DHT22;30830;53.704;10.004;2024-02-28T04:57:40;1.90;99.90
45066;DHT22;30830;53.704;10.004;2024-02-28T05:00:06;2.00;99.90
45066;DHT22;30830;53.704;10.004;2024-02-28T05:02:33;1.90;99.90
45066;DHT22;30830;53.704;10.004;2024-02-28T05:04:59;1.90;99.90
45066;DHT22;30830;53.704;10.004;2024-02-28T05:07:25;1.90;99.90
45066;DHT22;30830;53.704;10.004;2024-02-28T05:09:51;1.90;99.90
45066;DHT22;30830;53.704;10.004;2024-02-28T05:12:16;1.90;99.90
45066;DHT22;30830;53.704;10.004;2024-02-28T05:14:42;1.90;99.90
45066;DHT22;30830;53.704;10.004;2024-02-28T05:17:07;1.90;99.90
45066;DHT22;30830;53.704;10.004;2024-02-28T05:19:33;1.90;99.90
45066;DHT22;30830;53.704;10.004;2024-02-28T05:21:59;1.90;99.90
45066;DHT22;30830;53.704;10.004;2024-02-28T05:24:26;1.90;99.90
45066;DHT22;30830;53.704;10.004;2024-02-28T05:26:51;1.90;99.90
45066;DHT22;30830;53.704;10.004;2024-02-28T05:29:17;1.90;99.90
45066;DHT22;30830;53.704;10.004;2024-02-28T05:31:42;1.90;99.90
45066;DHT22;30830;53.704;10.004;2024-02-28T05:34:08;1.90;99.90
45066;DHT22;30830;53.704;10.004;2024-02-28T05:36:34;1.90;99.90
45066;DHT22;30830;53.704;10.004;2024-02-28T05:39:00;1.90;99.90
45066;DHT22;30830;53.704;10.004;2024-02-28T05:41:31;1.90;99.90
45066;DHT22;30830;53.704;10.004;2024-02-28T05:43:56;1.90;99.90
45066;DHT22;30830;53.704;10.004;2024-02-28T05:46:22;1.90;99.90
45066;DHT22;30830;53.704;10.004;2024-02-28T05:48:47;1.90;99.90
45066;DHT22;30830;53.704;10.004;2024-02-28T05:51:13;1.90;99.90
45066;DHT22;30830;53.704;10.004;2024-02-28T05:53:39;2.00;99.90
45066;DHT22;30830;53.704;10.004;2024-02-28T05:56:06;2.00;99.90
45066;DHT22;30830;53.704;10.004;2024-02-28T05:58:46;2.00;99.90
45066;DHT22;30830;53.704;10.004;2024-02-28T06:01:16;2.00;99.90
45066;DHT22;30830;53.704;10.004;2024-02-28T06:03:48;2.00;99.90
45066;DHT22;30830;53.704;10.004;2024-02-28T06:06:14;2.00;99.90
45066;DHT22;30830;53.704;10.004;2024-02-28T06:08:40;2.00;99.90
45066;DHT22;30830;53.704;10.004;2024-02-28T06:11:07;2.00;99.90
45066;DHT22;30830;53.704;10.004;2024-02-28T06:13:32;2.00;99.90
45066;DHT22;30830;53.704;10.004;2024-02-28T06:15:58;2.00;99.90
45066;DHT22;30830;53.704;10.004;2024-02-28T06:18:25;2.10;99.90
45066;DHT22;30830;53.704;10.004;2024-02-28T06:20:54;2.10;99.90
45066;DHT22;30830;53.704;10.004;2024-02-28T06:23:21;2.10;99.90
45066;DHT22;30830;53.704;10.004;2024-02-28T06:25:47;2.10;99.90
45066;DHT22;30830;53.704;10.004;2024-02-28T06:28:12;2.10;99.90
45066;DHT22;30830;53.704;10.004;2024-02-28T06:30:38;2.10;99.90
45066;DHT22;30830;53.704;10.004;2024-02-28T06:33:03;2.10;99.90
45066;DHT22;30830;53.704;10.004;2024-02-28T06:35:30;2.20;99.90
45066;DHT22;30830;53.704;10.004;2024-02-28T06:37:55;2.20;99.90
45066;DHT22;30830;53.704;10.004;2024-02-28T06:40:21;2.20;99.90
45066;DHT22;30830;53.704;10.004;2024-02-28T06:42:47;2.30;99.90
45066;DHT22;30830;53.704;10.004;2024-02-28T06:45:12;2.30;99.90
45066;DHT22;30830;53.704;10.004;2024-02-28T06:47:38;2.30;99.90
45066;DHT22;30830;53.704;10.004;2024-02-28T06:50:04;2.30;99.90
45066;DHT22;30830;53.704;10.004;2024-02-28T06:52:30;2.30;99.90
45066;DHT22;30830;53.704;10.004;2024-02-28T06:54:56;2.30;99.90
45066;DHT22;30830;53.704;10.004;2024-02-28T06:57:22;2.30;99.90
45066;DHT22;30830;53.704;10.004;2024-02-28T06:59:47;2.40;99.90
45066;DHT22;30830;53.704;10.004;2024-02-28T07:02:14;2.40;99.90
45066;DHT22;30830;53.704;10.004;2024-02-28T07:04:39;2.40;99.90
45066;DHT22;30830;53.704;10.004;2024-02-28T07:07:06;2.40;99.90
45066;DHT22;30830;53.704;10.004;2024-02-28T07:09:31;2.50;99.90
45066;DHT22;30830;53.704;10.004;2024-02-28T07:11:58;2.50;99.90
45066;DHT22;30830;53.704;10.004;2024-02-28T07:14:27;2.60;99.90
45066;DHT22;30830;53.704;10.004;2024-02-28T07:16:52;2.60;99.90
45066;DHT22;30830;53.704;10.004;2024-02-28T07:19:18;2.70;99.90
45066;DHT22;30830;53.704;10.004;2024-02-28T07:21:44;2.70;99.90
45066;DHT22;30830;53.704;10.004;2024-02-28T07:24:10;2.80;99.90
45066;DHT22;30830;53.704;10.004;2024-02-28T07:26:36;2.80;99.90
45066;DHT22;30830;53.704;10.004;2024-02-28T07:29:01;2.90;99.90
45066;DHT22;30830;53.704;10.004;2024-02-28T07:31:27;2.90;99.90
45066;DHT22;30830;53.704;10.004;2024-02-28T07:33:53;2.90;99.90
45066;DHT22;30830;53.704;10.004;2024-02-28T07:36:19;3.00;99.90
45066;DHT22;30830;53.704;10.004;2024-02-28T07:38:45;3.00;99.90
45066;DHT22;30830;53.704;10.004;2024-02-28T07:41:10;3.00;99.90
45066;DHT22;30830;53.704;10.004;2024-02-28T07:43:36;3.10;99.90
45066;DHT22;30830;53.704;10.004;2024-02-28T07:46:08;3.10;99.90
45066;DHT22;30830;53.704;10.004;2024-02-28T07:48:34;3.20;99.90
45066;DHT22;30830;53.704;10.004;2024-02-28T07:51:00;3.20;99.90
45066;DHT22;30830;53.704;10.004;2024-02-28T07:53:26;3.20;99.90
45066;DHT22;30830;53.704;10.004;2024-02-28T07:55:52;3.30;99.90
45066;DHT22;30830;53.704;10.004;2024-02-28T07:58:17;3.30;99.90
45066;DHT22;30830;53.704;10.004;2024-02-28T08:00:43;3.30;99.90
45066;DHT22;30830;53.704;10.004;2024-02-28T08:03:09;3.40;99.90
45066;DHT22;30830;53.704;10.004;2024-02-28T08:05:35;3.40;99.90
45066;DHT22;30830;53.704;10.004;2024-02-28T08:08:07;3.50;99.90
45066;DHT22;30830;53.704;10.004;2024-02-28T08:10:33;3.50;99.90
45066;DHT22;30830;53.704;10.004;2024-02-28T08:13:01;3.60;99.90
45066;DHT22;30830;53.704;10.004;2024-02-28T08:15:26;3.60;99.90
45066;DHT22;30830;53.704;10.004;2024-02-28T08:17:52;3.70;99.90
45066;DHT22;30830;53.704;10.004;2024-02-28T08:20:17;3.80;99.90
45066;DHT22;30830;53.704;10.004;2024-02-28T08:22:43;3.80;99.90
45066;DHT22;30830;53.704;10.004;2024-02-28T08:25:09;3.90;99.90
45066;DHT22;30830;53.704;10.004;2024-02-28T08:27:37;3.90;99.90
45066;DHT22;30830;53.704;10.004;2024-02-28T08:30:03;4.00;99.90
45066;DHT22;30830;53.704;10.004;2024-02-28T08:32:29;4.00;99.90
45066;DHT22;30830;53.704;10.004;2024-02-28T08:34:54;4.10;99.90
45066;DHT22;30830;53.704;10.004;2024-02-28T08:37:20;4.00;99.90
45066;DHT22;30830;53.704;10.004;2024-02-28T08:39:45;4.00;99.90
45066;DHT22;30830;53.704;10.004;2024-02-28T08:42:11;4.00;99.90
45066;DHT22;30830;53.704;10.004;2024-02-28T08:44:37;4.00;99.90
45066;DHT22;30830;53.704;10.004;2024-02-28T08:47:03;4.00;99.90
45066;DHT22;30830;53.704;10.004;2024-02-28T08:49:29;4.00;99.90
45066;DHT22;30830;53.704;10.004;2024-02-28T08:51:56;4.20;99.90
45066;DHT22;30830;53.704;10.004;2024-02-28T08:54:22;4.50;99.90
45066;DHT22;30830;53.704;10.004;2024-02-28T08:56:48;4.60;99.90
45066;DHT22;30830;53.704;10.004;2024-02-28T08:59:14;4.80;99.90
45066;DHT22;30830;53.704;10.004;2024-02-28T09:01:39;4.90;99.90
45066;DHT22;30830;53.704;10.004;2024-02-28T09:04:06;5.00;99.90
45066;DHT22;30830;53.704;10.004;2024-02-28T09:06:32;5.00;99.90
45066;DHT22;30830;53.704;10.004;2024-02-28T09:08:58;5.00;99.90
45066;DHT22;30830;53.704;10.004;2024-02-28T09:11:23;5.00;99.90
45066;DHT22;30830;53.704;10.004;2024-02-28T09:13:50;5.00;99.90
45066;DHT22;30830;53.704;10.004;2024-02-28T09:16:16;5.10;99.90
45066;DHT22;30830;53.704;10.004;2024-02-28T09:18:41;5.10;99.90
45066;DHT22;30830;53.704;10.004;2024-02-28T09:21:08;5.10;99.90
45066;DHT22;30830;53.704;10.004;2024-02-28T09:23:34;5.10;99.90
45066;DHT22;30830;53.704;10.004;2024-02-28T09:26:05;5.10;99.90
45066;DHT22;30830;53.704;10.004;2024-02-28T09:28:57;5.10;99.90
45066;DHT22;30830;53.704;10.004;2024-02-28T09:31:22;5.10;99.90
45066;DHT22;30830;53.704;10.004;2024-02-28T09:33:48;5.10;99.90
45066;DHT22;30830;53.704;10.004;2024-02-28T09:36:22;5.30;99.90
45066;DHT22;30830;53.704;10.004;2024-02-28T09:38:48;5.50;99.90
45066;DHT22;30830;53.704;10.004;2024-02-28T09:41:17;5.80;99.90
45066;DHT22;30830;53.704;10.004;2024-02-28T09:43:44;6.10;99.90
45066;DHT22;30830;53.704;10.004;2024-02-28T09:46:11;6.30;99.90
45066;DHT22;30830;53.704;10.004;2024-02-28T09:48:41;6.40;99.90
45066;DHT22;30830;53.704;10.004;2024-02-28T09:51:08;6.60;99.90
45066;DHT22;30830;53.704;10.004;2024-02-28T09:53:35;6.70;99.90
45066;DHT22;30830;53.704;10.004;2024-02-28T09:56:01;6.80;99.90
45066;DHT22;30830;53.704;10.004;2024-02-28T09:58:27;6.90;99.90
45066;DHT22;30830;53.704;10.004;2024-02-28T10:00:57;7.00;99.90
45066;DHT22;30830;53.704;10.004;2024-02-28T10:03:25;6.90;99.90
45066;DHT22;30830;53.704;10.004;2024-02-28T10:05:51;6.80;99.90
45066;DHT22;30830;53.704;10.004;2024-02-28T10:08:17;6.80;99.90
45066;DHT22;30830;53.704;10.004;2024-02-28T10:10:49;6.80;99.90
45066;DHT22;30830;53.704;10.004;2024-02-28T10:13:18;6.90;99.90
45066;DHT22;30830;53.704;10.004;2024-02-28T10:15:44;6.90;99.90
45066;DHT22;30830;53.704;10.004;2024-02-28T10:18:10;6.90;99.90
45066;DHT22;30830;53.704;10.004;2024-02-28T10:20:36;7.00;99.90
45066;DHT22;30830;53.704;10.004;2024-02-28T10:23:05;7.10;99.90
45066;DHT22;30830;53.704;10.004;2024-02-28T10:25:41;7.20;99.90
45066;DHT22;30830;53.704;10.004;2024-02-28T10:28:07;7.40;99.90
45066;DHT22;30830;53.704;10.004;2024-02-28T10:30:32;7.50;99.90
45066;DHT22;30830;53.704;10.004;2024-02-28T10:32:58;7.60;99.90
45066;DHT22;30830;53.704;10.004;2024-02-28T10:35:23;7.60;99.90
45066;DHT22;30830;53.704;10.004;2024-02-28T10:37:51;7.60;99.90
45066;DHT22;30830;53.704;10.004;2024-02-28T10:40:19;7.60;99.90
45066;DHT22;30830;53.704;10.004;2024-02-28T10:42:45;7.60;99.90
45066;DHT22;30830;53.704;10.004;2024-02-28T10:45:12;7.60;99.90
45066;DHT22;30830;53.704;10.004;2024-02-28T10:47:41;7.50;99.90
45066;DHT22;30830;53.704;10.004;2024-02-28T10:50:07;7.50;99.90
45066;DHT22;30830;53.704;10.004;2024-02-28T10:52:43;7.40;99.90
45066;DHT22;30830;53.704;10.004;2024-02-28T10:55:11;7.40;99.90
45066;DHT22;30830;53.704;10.004;2024-02-28T10:57:38;7.40;99.90
45066;DHT22;30830;53.704;10.004;2024-02-28T11:00:05;7.40;99.90
45066;DHT22;30830;53.704;10.004;2024-02-28T11:02:32;7.40;99.90
45066;DHT22;30830;53.704;10.004;2024-02-28T11:04:58;7.50;99.90
45066;DHT22;30830;53.704;10.004;2024-02-28T11:07:26;7.60;99.90
45066;DHT22;30830;53.704;10.004;2024-02-28T11:09:55;7.50;99.90
45066;DHT22;30830;53.704;10.004;2024-02-28T11:12:28;7.50;99.90
45066;DHT22;30830;53.704;10.004;2024-02-28T11:14:58;7.60;99.90
45066;DHT22;30830;53.704;10.004;2024-02-28T11:17:29;7.70;99.90
45066;DHT22;30830;53.704;10.004;2024-02-28T11:19:55;7.80;99.90
45066;DHT22;30830;53.704;10.004;2024-02-28T11:22:21;7.80;99.90
45066;DHT22;30830;53.704;10.004;2024-02-28T11:24:47;7.90;99.90
45066;DHT22;30830;53.704;10.004;2024-02-28T11:27:16;8.00;99.90
45066;DHT22;30830;53.704;10.004;2024-02-28T11:29:42;8.00;99.90
45066;DHT22;30830;53.704;10.004;2024-02-28T11:32:07;8.00;99.90
45066;DHT22;30830;53.704;10.004;2024-02-28T11:34:36;8.10;99.90
45066;DHT22;30830;53.704;10.004;2024-02-28T11:37:03;8.10;99.90
45066;DHT22;30830;53.704;10.004;2024-02-28T11:39:29;8.20;99.90
45066;DHT22;30830;53.704;10.004;2024-02-28T11:42:11;8.20;99.90
45066;DHT22;30830;53.704;10.004;2024-02-28T11:44:38;8.20;99.90
45066;DHT22;30830;53.704;10.004;2024-02-28T11:47:04;8.20;99.90
45066;DHT22;30830;53.704;10.004;2024-02-28T11:49:33;8.20;99.90
45066;DHT22;30830;53.704;10.004;2024-02-28T11:51:58;8.10;99.90
45066;DHT22;30830;53.704;10.004;2024-02-28T11:54:24;8.10;99.90
45066;DHT22;30830;53.704;10.004;2024-02-28T11:56:50;8.10;99.90
45066;DHT22;30830;53.704;10.004;2024-02-28T11:59:15;8.20;99.90
45066;DHT22;30830;53.704;10.004;2024-02-28T12:01:42;8.20;99.90
45066;DHT22;30830;53.704;10.004;2024-02-28T12:04:09;8.20;99.90
45066;DHT22;30830;53.704;10.004;2024-02-28T12:06:48;8.10;99.90
45066;DHT22;30830;53.704;10.004;2024-02-28T12:09:14;8.00;99.90
45066;DHT22;30830;53.704;10.004;2024-02-28T12:12:01;7.90;99.90
45066;DHT22;30830;53.704;10.004;2024-02-28T12:14:50;7.90;99.90
45066;DHT22;30830;53.704;10.004;2024-02-28T12:17:18;8.00;99.90
45066;DHT22;30830;53.704;10.004;2024-02-28T12:19:44;8.00;99.90
45066;DHT22;30830;53.704;10.004;2024-02-28T12:22:10;8.10;99.90
45066;DHT22;30830;53.704;10.004;2024-02-28T12:24:36;8.10;99.90
45066;DHT22;30830;53.704;10.004;2024-02-28T12:27:02;8.10;99.90
45066;DHT22;30830;53.704;10.004;2024-02-28T12:29:27;8.00;99.90
45066;DHT22;30830;53.704;10.004;2024-02-28T12:31:53;8.00;99.90
45066;DHT22;30830;53.704;10.004;2024-02-28T12:34:18;8.00;99.90
45066;DHT22;30830;53.704;10.004;2024-02-28T12:36:44;8.00;99.90
45066;DHT22;30830;53.704;10.004;2024-02-28T12:39:09;8.00;99.90
45066;DHT22;30830;53.704;10.004;2024-02-28T12:41:38;8.10;99.90
45066;DHT22;30830;53.704;10.004;2024-02-28T12:44:07;8.10;99.90
45066;DHT22;30830;53.704;10.004;2024-02-28T12:46:34;8.10;99.90
45066;DHT22;30830;53.704;10.004;2024-02-28T12:49:00;8.10;99.90
45066;DHT22;30830;53.704;10.004;2024-02-28T12:51:43;8.00;99.90
45066;DHT22;30830;53.704;10.004;2024-02-28T12:54:10;8.00;99.90
45066;DHT22;30830;53.704;10.004;2024-02-28T12:56:40;7.90;99.90
45066;DHT22;30830;53.704;10.004;2024-02-28T12:59:08;7.80;99.90
45066;DHT22;30830;53.704;10.004;2024-02-28T13:01:34;7.70;99.90
45066;DHT22;30830;53.704;10.004;2024-02-28T13:04:05;7.50;99.90
45066;DHT22;30830;53.704;10.004;2024-02-28T13:06:30;7.50;99.90
45066;DHT22;30830;53.704;10.004;2024-02-28T13:08:56;7.50;99.90
45066;DHT22;30830;53.704;10.004;2024-02-28T13:11:27;7.60;99.90
45066;DHT22;30830;53.704;10.004;2024-02-28T13:13:53;7.60;99.90
45066;DHT22;30830;53.704;10.004;2024-02-28T13:16:20;7.60;99.90
45066;DHT22;30830;53.704;10.004;2024-02-28T13:18:47;7.60;99.90
45066;DHT22;30830;53.704;10.004;2024-02-28T13:21:13;7.60;99.90
45066;DHT22;30830;53.704;10.004;2024-02-28T13:23:39;7.50;99.90
45066;DHT22;30830;53.704;10.004;2024-02-28T13:26:05;7.50;99.90
45066;DHT22;30830;53.704;10.004;2024-02-28T13:28:31;7.60;99.90
45066;DHT22;30830;53.704;10.004;2024-02-28T13:31:00;7.60;99.90
45066;DHT22;30830;53.704;10.004;2024-02-28T13:33:26;7.60;99.90
45066;DHT22;30830;53.704;10.004;2024-02-28T13:35:53;7.50;99.90
45066;DHT22;30830;53.704;10.004;2024-02-28T13:38:19;7.50;99.90
45066;DHT22;30830;53.704;10.004;2024-02-28T13:40:46;7.40;99.90
45066;DHT22;30830;53.704;10.004;2024-02-28T13:43:11;7.50;99.90
45066;DHT22;30830;53.704;10.004;2024-02-28T13:45:47;7.50;99.90
45066;DHT22;30830;53.704;10.004;2024-02-28T13:48:20;7.50;99.90
45066;DHT22;30830;53.704;10.004;2024-02-28T13:50:52;7.60;99.90
45066;DHT22;30830;53.704;10.004;2024-02-28T13:53:18;7.60;99.90
45066;DHT22;30830;53.704;10.004;2024-02-28T13:55:45;7.70;99.90
45066;DHT22;30830;53.704;10.004;2024-02-28T13:58:11;7.70;99.90
45066;DHT22;30830;53.704;10.004;2024-02-28T14:00:40;7.70;99.90
45066;DHT22;30830;53.704;10.004;2024-02-28T14:03:07;7.70;99.90
45066;DHT22;30830;53.704;10.004;2024-02-28T14:05:32;7.70;99.90
45066;DHT22;30830;53.704;10.004;2024-02-28T14:07:58;7.60;99.90
45066;DHT22;30830;53.704;10.004;2024-02-28T14:10:25;7.60;99.90
45066;DHT22;30830;53.704;10.004;2024-02-28T14:12:50;7.60;99.90
45066;DHT22;30830;53.704;10.004;2024-02-28T14:15:19;7.60;99.90
45066;DHT22;30830;53.704;10.004;2024-02-28T14:17:45;7.50;99.90
45066;DHT22;30830;53.704;10.004;2024-02-28T14:20:11;7.50;99.90
45066;DHT22;30830;53.704;10.004;2024-02-28T14:22:37;7.60;99.90
45066;DHT22;30830;53.704;10.004;2024-02-28T14:25:16;7.60;99.90
45066;DHT22;30830;53.704;10.004;2024-02-28T14:27:45;7.60;99.90
45066;DHT22;30830;53.704;10.004;2024-02-28T14:30:12;7.50;99.90
45066;DHT22;30830;53.704;10.004;2024-02-28T14:32:39;7.50;99.90
45066;DHT22;30830;53.704;10.004;2024-02-28T14:35:08;7.40;99.90
45066;DHT22;30830;53.704;10.004;2024-02-28T14:37:35;7.40;99.90
45066;DHT22;30830;53.704;10.004;2024-02-28T14:40:02;7.40;99.90
45066;DHT22;30830;53.704;10.004;2024-02-28T14:42:36;7.30;99.90
45066;DHT22;30830;53.704;10.004;2024-02-28T14:45:03;7.30;99.90
45066;DHT22;30830;53.704;10.004;2024-02-28T14:47:29;7.30;99.90
45066;DHT22;30830;53.704;10.004;2024-02-28T14:49:55;7.30;99.90
45066;DHT22;30830;53.704;10.004;2024-02-28T14:52:30;7.30;99.90
45066;DHT22;30830;53.704;10.004;2024-02-28T14:54:55;7.30;99.90
45066;DHT22;30830;53.704;10.004;2024-02-28T14:57:21;7.30;99.90
45066;DHT22;30830;53.704;10.004;2024-02-28T14:59:47;7.30;99.90
45066;DHT22;30830;53.704;10.004;2024-02-28T15:02:12;7.20;99.90
45066;DHT22;30830;53.704;10.004;2024-02-28T15:04:38;7.20;99.90
45066;DHT22;30830;53.704;10.004;2024-02-28T15:07:04;7.10;99.90
45066;DHT22;30830;53.704;10.004;2024-02-28T15:09:30;7.10;99.90
45066;DHT22;30830;53.704;10.004;2024-02-28T15:11:56;7.20;99.90
45066;DHT22;30830;53.704;10.004;2024-02-28T15:14:22;7.10;99.90
45066;DHT22;30830;53.704;10.004;2024-02-28T15:16:48;7.10;99.90
45066;DHT22;30830;53.704;10.004;2024-02-28T15:19:14;7.10;99.90
45066;DHT22;30830;53.704;10.004;2024-02-28T15:21:43;7.10;99.90
45066;DHT22;30830;53.704;10.004;2024-02-28T15:24:12;7.10;99.90
45066;DHT22;30830;53.704;10.004;2024-02-28T15:26:42;7.10;99.90